createdAt,value
2022-09-07T00:00:13.999Z,17.71
2022-09-07T00:02:44.612Z,17.64
2022-09-07T00:05:15.171Z,17.59
2022-09-07T00:07:45.736Z,17.57
2022-09-07T00:10:16.422Z,17.57
2022-09-07T00:12:47.260Z,17.57
2022-09-07T00:15:17.744Z,17.55
2022-09-07T00:17:48.216Z,17.55
2022-09-07T00:20:18.966Z,17.51
2022-09-07T00:22:49.585Z,17.53
2022-09-07T00:25:20.095Z,17.46
2022-09-07T00:27:51.290Z,17.41
2022-09-07T00:30:22.159Z,17.41
2022-09-07T00:32:52.980Z,17.43
2022-09-07T00:35:23.511Z,17.43
2022-09-07T00:37:54.007Z,17.43
2022-09-07T00:40:24.461Z,17.43
2022-09-07T00:42:54.517Z,17.41
2022-09-07T00:45:25.428Z,17.43
2022-09-07T00:48:10.938Z,17.36
2022-09-07T00:50:53.278Z,17.36
2022-09-07T00:53:51.055Z,17.34
2022-09-07T00:56:23.813Z,17.33
2022-09-07T00:58:55.195Z,17.33
2022-09-07T01:01:26.584Z,17.33
2022-09-07T01:04:00.964Z,17.23
2022-09-07T01:06:37.731Z,17.23
2022-09-07T01:09:12.561Z,17.22
2022-09-07T01:11:47.008Z,17.27
2022-09-07T01:14:19.062Z,17.29
2022-09-07T01:17:01.684Z,17.30
2022-09-07T01:20:05.414Z,17.29
2022-09-07T01:23:03.891Z,17.33
2022-09-07T01:25:57.000Z,17.34
2022-09-07T01:28:33.983Z,17.29
2022-09-07T01:31:14.169Z,17.22
2022-09-07T01:33:47.715Z,17.20
2022-09-07T01:36:36.487Z,17.23
2022-09-07T01:39:09.508Z,17.18
2022-09-07T01:42:00.023Z,17.19
2022-09-07T01:44:37.173Z,17.20
2022-09-07T01:47:25.187Z,17.19
2022-09-07T01:50:12.489Z,17.13
2022-09-07T01:52:50.116Z,17.13
2022-09-07T01:55:35.224Z,17.15
2022-09-07T01:58:42.114Z,17.13
2022-09-07T02:01:25.618Z,17.10
2022-09-07T02:04:14.269Z,17.09
2022-09-07T02:06:44.586Z,17.09
2022-09-07T02:09:43.555Z,17.10
2022-09-07T02:12:29.603Z,17.10
2022-09-07T02:15:08.033Z,17.15
2022-09-07T02:17:45.886Z,17.06
2022-09-07T02:20:22.474Z,17.06
2022-09-07T02:22:58.611Z,17.09
2022-09-07T02:25:35.395Z,17.02
2022-09-07T02:28:27.949Z,16.96
2022-09-07T02:30:58.993Z,16.93
2022-09-07T02:33:30.843Z,16.96
2022-09-07T02:36:03.222Z,16.95
2022-09-07T02:38:34.886Z,16.98
2022-09-07T02:41:06.310Z,16.98
2022-09-07T02:43:37.117Z,16.98
2022-09-07T02:46:21.684Z,16.96
2022-09-07T02:48:57.558Z,16.95
2022-09-07T02:51:52.346Z,16.88
2022-09-07T02:54:35.995Z,16.83
2022-09-07T02:57:42.689Z,16.82
2022-09-07T03:00:17.941Z,16.81
2022-09-07T03:03:07.693Z,16.78
2022-09-07T03:05:49.286Z,16.72
2022-09-07T03:08:50.454Z,16.72
2022-09-07T03:11:21.383Z,16.69
2022-09-07T03:13:51.978Z,16.68
2022-09-07T03:16:22.479Z,16.72
2022-09-07T03:18:53.104Z,16.68
2022-09-07T03:21:23.615Z,16.71
2022-09-07T03:23:53.816Z,16.71
2022-09-07T03:26:29.042Z,16.69
2022-09-07T03:28:59.512Z,16.69
2022-09-07T03:31:29.813Z,16.65
2022-09-07T03:34:00.310Z,16.61
2022-09-07T03:36:32.346Z,16.58
2022-09-07T03:39:04.169Z,16.52
2022-09-07T03:41:35.071Z,16.48
2022-09-07T03:44:09.856Z,16.52
2022-09-07T03:46:40.404Z,16.49
2022-09-07T03:49:10.909Z,16.41
2022-09-07T03:51:41.333Z,16.45
2022-09-07T03:54:12.035Z,16.47
2022-09-07T03:56:42.642Z,16.42
2022-09-07T03:59:13.111Z,16.42
2022-09-07T04:01:43.661Z,16.44
2022-09-07T04:04:14.931Z,16.38
2022-09-07T04:06:45.395Z,16.41
2022-09-07T04:09:15.886Z,16.48
2022-09-07T04:11:46.235Z,16.40
2022-09-07T04:14:16.339Z,16.38
2022-09-07T04:16:46.813Z,16.37
2022-09-07T04:19:17.554Z,16.30
2022-09-07T04:21:48.516Z,16.24
2022-09-07T04:24:20.051Z,16.21
2022-09-07T04:26:50.513Z,16.24
2022-09-07T04:29:20.538Z,16.32
2022-09-07T04:31:50.875Z,16.37
2022-09-07T04:34:20.824Z,16.37
2022-09-07T04:36:50.932Z,16.38
2022-09-07T04:39:21.426Z,16.38
2022-09-07T04:41:51.770Z,16.38
2022-09-07T04:44:22.198Z,16.31
2022-09-07T04:46:52.139Z,16.30
2022-09-07T04:49:22.371Z,16.21
2022-09-07T04:51:52.208Z,16.18
2022-09-07T04:54:22.771Z,16.17
2022-09-07T04:56:53.186Z,16.08
2022-09-07T04:59:24.079Z,16.04
2022-09-07T05:01:54.615Z,16.13
2022-09-07T05:04:25.091Z,16.16
2022-09-07T05:06:56.547Z,16.24
2022-09-07T05:09:26.998Z,16.21
2022-09-07T05:11:57.644Z,16.21
2022-09-07T05:14:28.204Z,16.21
2022-09-07T05:16:58.696Z,16.27
2022-09-07T05:19:29.430Z,16.30
2022-09-07T05:22:00.061Z,16.31
2022-09-07T05:24:30.021Z,16.35
2022-09-07T05:27:03.109Z,16.35
2022-09-07T05:32:24.039Z,16.42
2022-09-07T05:34:55.074Z,16.41
2022-09-07T05:37:25.394Z,16.47
2022-09-07T05:39:57.917Z,16.47
2022-09-07T05:42:28.398Z,16.49
2022-09-07T05:44:58.406Z,16.47
2022-09-07T05:47:29.193Z,16.44
2022-09-07T05:49:59.558Z,16.32
2022-09-07T05:52:30.067Z,16.24
2022-09-07T05:55:19.396Z,16.31
2022-09-07T05:57:51.117Z,16.38
2022-09-07T06:00:22.839Z,16.44
2022-09-07T06:02:53.273Z,16.42
2022-09-07T06:05:23.757Z,16.38
2022-09-07T06:07:54.435Z,16.41
2022-09-07T06:13:15.113Z,16.42
2022-09-07T06:15:45.175Z,16.42
2022-09-07T06:18:15.718Z,16.40
2022-09-07T06:20:46.154Z,16.41
2022-09-07T06:23:16.105Z,16.41
2022-09-07T06:25:52.618Z,16.41
2022-09-07T06:28:22.589Z,16.42
2022-09-07T06:30:52.748Z,16.35
2022-09-07T06:33:22.621Z,16.32
2022-09-07T06:36:00.267Z,16.41
2022-09-07T06:38:39.004Z,16.47
2022-09-07T06:44:04.611Z,16.35
2022-09-07T06:49:26.557Z,16.40
2022-09-07T06:51:56.997Z,16.37
2022-09-07T06:57:17.459Z,16.31
2022-09-07T06:59:47.923Z,16.30
2022-09-07T07:02:17.953Z,16.27
2022-09-07T07:04:48.448Z,16.30
2022-09-07T07:07:18.409Z,16.31
2022-09-07T07:09:51.366Z,16.30
2022-09-07T07:14:49.756Z,16.27
2022-09-07T07:17:19.607Z,16.25
2022-09-07T07:19:49.632Z,16.22
2022-09-07T07:25:11.415Z,16.21
2022-09-07T07:27:41.856Z,16.14
2022-09-07T07:30:12.710Z,16.21
2022-09-07T07:32:44.334Z,16.25
2022-09-07T07:35:15.917Z,16.25
2022-09-07T07:37:46.699Z,16.27
2022-09-07T07:40:19.176Z,16.21
2022-09-07T07:42:53.945Z,16.21
2022-09-07T07:48:14.876Z,16.10
2022-09-07T07:50:45.310Z,16.08
2022-09-07T07:56:12.972Z,16.06
2022-09-07T07:58:48.265Z,16.07
2022-09-07T08:01:20.593Z,16.01
2022-09-07T08:03:51.161Z,16.03
2022-09-07T08:06:23.324Z,16.06
2022-09-07T08:08:53.814Z,16.08
2022-09-07T08:11:24.523Z,16.11
2022-09-07T08:13:56.254Z,16.13
2022-09-07T08:16:26.880Z,16.17
2022-09-07T08:18:57.491Z,16.17
2022-09-07T08:21:28.074Z,16.17
2022-09-07T08:23:58.609Z,16.17
2022-09-07T08:26:29.689Z,16.18
2022-09-07T08:29:00.248Z,16.16
2022-09-07T08:31:30.979Z,16.04
2022-09-07T08:34:03.202Z,16.01
2022-09-07T08:36:33.917Z,16.04
2022-09-07T08:39:04.869Z,16.08
2022-09-07T08:41:47.832Z,16.07
2022-09-07T08:44:27.290Z,15.99
2022-09-07T08:47:06.268Z,15.97
2022-09-07T08:50:02.731Z,15.99
2022-09-07T08:53:03.137Z,15.96
2022-09-07T08:56:18.006Z,15.94
2022-09-07T08:58:54.773Z,15.91
2022-09-07T09:01:34.052Z,16.00
2022-09-07T09:04:19.342Z,15.93
2022-09-07T09:07:07.181Z,15.97
2022-09-07T09:09:55.884Z,15.99
2022-09-07T09:12:56.447Z,15.97
2022-09-07T09:15:53.818Z,15.96
2022-09-07T09:19:10.396Z,15.89
2022-09-07T09:21:42.872Z,15.80
2022-09-07T09:24:21.319Z,15.85
2022-09-07T09:26:56.358Z,15.83
2022-09-07T09:29:26.900Z,15.90
2022-09-07T09:31:57.811Z,15.93
2022-09-07T09:34:31.250Z,15.93
2022-09-07T09:37:03.953Z,15.93
2022-09-07T09:39:45.768Z,15.86
2022-09-07T09:42:17.951Z,15.80
2022-09-07T09:44:49.253Z,15.86
2022-09-07T09:47:35.999Z,15.93
2022-09-07T09:53:28.436Z,15.94
2022-09-07T09:55:58.925Z,15.87
2022-09-07T10:01:28.097Z,15.96
2022-09-07T10:04:01.072Z,15.96
2022-09-07T10:06:31.877Z,15.99
2022-09-07T10:09:03.920Z,16.04
2022-09-07T10:14:49.061Z,16.21
2022-09-07T10:17:31.545Z,16.24
2022-09-07T10:20:18.434Z,16.30
2022-09-07T10:23:21.173Z,16.28
2022-09-07T10:25:52.553Z,16.27
2022-09-07T10:29:06.161Z,16.31
2022-09-07T10:31:38.094Z,16.34
2022-09-07T10:34:27.003Z,16.32
2022-09-07T10:37:12.446Z,16.34
2022-09-07T10:40:20.721Z,16.37
2022-09-07T10:43:21.853Z,16.45
2022-09-07T10:46:14.233Z,16.51
2022-09-07T10:49:03.105Z,16.52
2022-09-07T10:51:58.848Z,16.58
2022-09-07T10:54:41.733Z,16.65
2022-09-07T10:57:44.550Z,16.72
2022-09-07T11:00:24.046Z,16.85
2022-09-07T11:03:33.154Z,16.93
2022-09-07T11:06:39.027Z,16.96
2022-09-07T11:09:34.112Z,16.99
2022-09-07T11:12:30.822Z,17.02
2022-09-07T11:15:16.592Z,17.09
2022-09-07T11:18:15.791Z,17.22
2022-09-07T11:20:56.833Z,17.30
2022-09-07T11:24:01.521Z,17.41
2022-09-07T11:26:41.484Z,17.50
2022-09-07T11:29:32.429Z,17.60
2022-09-07T11:32:16.309Z,17.71
2022-09-07T11:34:58.835Z,17.81
2022-09-07T11:37:41.617Z,17.92
2022-09-07T11:40:23.024Z,18.09
2022-09-07T11:43:01.037Z,18.15
2022-09-07T11:45:42.972Z,18.21
2022-09-07T11:48:21.360Z,18.18
2022-09-07T11:50:59.327Z,18.22
2022-09-07T11:53:34.304Z,18.38
2022-09-07T11:56:15.871Z,18.46
2022-09-07T11:59:16.718Z,18.51
2022-09-07T12:01:53.345Z,18.59
2022-09-07T12:04:58.820Z,18.62
2022-09-07T12:07:52.572Z,18.63
2022-09-07T12:10:41.168Z,18.56
2022-09-07T12:13:20.979Z,18.57
2022-09-07T12:16:13.821Z,18.45
2022-09-07T12:19:16.730Z,18.53
2022-09-07T12:21:53.215Z,18.57
2022-09-07T12:24:41.582Z,18.74
2022-09-07T12:27:23.965Z,18.86
2022-09-07T12:30:02.784Z,19.04
2022-09-07T12:32:58.053Z,19.18
2022-09-07T12:35:29.496Z,19.27
2022-09-07T12:38:04.614Z,19.45
2022-09-07T12:40:38.674Z,19.62
2022-09-07T12:43:15.156Z,19.78
2022-09-07T12:45:51.028Z,19.89
2022-09-07T12:48:21.407Z,19.97
2022-09-07T12:51:02.792Z,20.08
2022-09-07T12:53:50.039Z,20.24
2022-09-07T12:57:29.051Z,20.36
2022-09-07T12:59:42.125Z,20.39
2022-09-07T13:02:12.060Z,20.37
2022-09-07T13:05:07.506Z,20.36
2022-09-07T13:08:07.227Z,20.48
2022-09-07T13:10:39.755Z,20.57
2022-09-07T13:16:31.414Z,21.16
2022-09-07T13:19:04.401Z,21.39
2022-09-07T13:21:50.073Z,21.60
2022-09-07T13:27:48.061Z,21.75
2022-09-07T13:30:17.975Z,22.00
2022-09-07T13:35:39.098Z,22.14
2022-09-07T13:38:16.870Z,22.30
2022-09-07T13:40:50.100Z,22.41
2022-09-07T13:43:27.022Z,22.41
2022-09-07T13:45:57.770Z,22.48
2022-09-07T13:48:52.202Z,22.69
2022-09-07T13:51:42.133Z,22.54
2022-09-07T13:54:40.369Z,22.86
2022-09-07T13:57:29.343Z,23.02
2022-09-07T14:00:00.197Z,23.06
2022-09-07T14:02:41.415Z,23.26
2022-09-07T14:05:21.658Z,23.45
2022-09-07T14:07:52.173Z,23.56
2022-09-07T14:10:26.435Z,23.75
2022-09-07T14:13:09.301Z,24.09
2022-09-07T14:15:43.348Z,24.33
2022-09-07T14:18:16.167Z,24.45
2022-09-07T14:20:49.946Z,24.80
2022-09-07T14:23:36.310Z,24.91
2022-09-07T14:26:18.304Z,24.96
2022-09-07T14:28:52.768Z,25.13
2022-09-07T14:31:26.036Z,25.50
2022-09-07T14:33:59.486Z,24.79
2022-09-07T14:36:45.694Z,24.36
2022-09-07T14:39:19.143Z,24.04
2022-09-07T14:41:50.372Z,23.96
2022-09-07T14:44:34.989Z,23.80
2022-09-07T14:47:09.903Z,23.75
2022-09-07T14:49:40.784Z,23.68
2022-09-07T14:52:21.697Z,23.61
2022-09-07T14:54:56.109Z,23.46
2022-09-07T14:57:33.774Z,23.43
2022-09-07T15:00:43.909Z,23.33
2022-09-07T15:03:26.655Z,23.29
2022-09-07T15:06:01.346Z,23.47
2022-09-07T15:08:42.336Z,23.56
2022-09-07T15:11:34.114Z,23.87
2022-09-07T15:14:12.056Z,23.91
2022-09-07T15:16:45.740Z,23.93
2022-09-07T15:19:19.847Z,24.00
2022-09-07T15:21:50.496Z,24.00
2022-09-07T15:24:20.904Z,24.11
2022-09-07T15:27:02.966Z,24.65
2022-09-07T15:29:33.822Z,24.76
2022-09-07T15:32:05.291Z,24.65
2022-09-07T15:34:38.448Z,24.59
2022-09-07T15:39:59.702Z,25.09
2022-09-07T15:45:20.940Z,24.56
2022-09-07T15:47:53.364Z,24.63
2022-09-07T15:50:24.036Z,24.58
2022-09-07T15:52:54.434Z,24.52
2022-09-07T15:55:26.564Z,24.40
2022-09-07T15:58:10.596Z,24.45
2022-09-07T16:00:42.183Z,24.75
2022-09-07T16:03:12.856Z,24.99
2022-09-07T16:05:45.498Z,25.20
2022-09-07T16:08:33.012Z,25.37
2022-09-07T16:11:28.774Z,25.10
2022-09-07T16:14:02.023Z,25.07
2022-09-07T16:19:26.623Z,25.98
2022-09-07T16:21:57.534Z,26.51
2022-09-07T16:24:29.676Z,26.44
2022-09-07T16:27:00.093Z,26.29
2022-09-07T16:29:30.722Z,26.10
2022-09-07T16:34:52.297Z,26.19
2022-09-07T16:37:22.672Z,26.26
2022-09-07T16:39:53.846Z,26.08
2022-09-07T16:42:25.377Z,26.51
2022-09-07T16:46:02.740Z,26.65
2022-09-07T16:47:46.286Z,26.39
2022-09-07T16:50:16.836Z,26.53
2022-09-07T16:52:47.431Z,27.32
2022-09-07T16:55:18.213Z,27.28
2022-09-07T17:00:39.679Z,26.86
2022-09-07T17:03:10.782Z,27.58
2022-09-07T17:05:42.544Z,27.83
2022-09-07T17:08:13.038Z,28.14
2022-09-07T17:10:43.714Z,28.34
2022-09-07T17:13:14.224Z,28.41
2022-09-07T17:15:44.918Z,28.64
2022-09-07T17:18:16.736Z,28.84
2022-09-07T17:20:59.879Z,28.18
2022-09-07T17:23:31.026Z,28.51
2022-09-07T17:26:12.762Z,28.58
2022-09-07T17:28:45.352Z,27.97
2022-09-07T17:34:14.504Z,28.40
2022-09-07T17:36:45.073Z,28.45
2022-09-07T17:39:17.500Z,27.48
2022-09-07T17:41:52.242Z,27.46
2022-09-07T17:44:24.550Z,28.16
2022-09-07T17:46:55.074Z,29.77
2022-09-07T17:49:26.394Z,30.14
2022-09-07T17:51:59.774Z,28.78
2022-09-07T17:54:30.691Z,29.94
2022-09-07T17:57:01.420Z,28.12
2022-09-07T18:02:22.765Z,29.15
2022-09-07T18:04:53.320Z,28.94
2022-09-07T18:07:23.867Z,30.36
2022-09-07T18:09:54.367Z,29.22
2022-09-07T18:12:25.041Z,28.41
2022-09-07T18:14:55.465Z,28.68
2022-09-07T18:17:26.020Z,27.83
2022-09-07T18:19:56.647Z,27.97
2022-09-07T18:22:27.327Z,26.98
2022-09-07T18:24:57.711Z,27.16
2022-09-07T18:27:28.346Z,27.12
2022-09-07T18:29:59.127Z,27.86
2022-09-07T18:32:29.452Z,29.19
2022-09-07T18:34:59.891Z,28.55
2022-09-07T18:37:31.499Z,29.40
2022-09-07T18:40:02.563Z,29.45
2022-09-07T18:42:33.482Z,27.35
2022-09-07T18:47:54.870Z,27.10
2022-09-07T18:50:25.632Z,28.13
2022-09-07T18:53:03.999Z,29.64
2022-09-07T18:55:37.958Z,28.96
2022-09-07T18:58:08.917Z,27.51
2022-09-07T19:00:45.069Z,27.65
2022-09-07T19:03:16.780Z,28.00
2022-09-07T19:05:52.481Z,26.94
2022-09-07T19:08:23.321Z,26.33
2022-09-07T19:10:54.204Z,25.92
2022-09-07T19:13:24.735Z,25.65
2022-09-07T19:15:55.268Z,25.38
2022-09-07T19:18:25.813Z,25.23
2022-09-07T19:20:56.218Z,25.17
2022-09-07T19:23:26.855Z,25.11
2022-09-07T19:26:00.362Z,24.97
2022-09-07T19:28:31.416Z,24.84
2022-09-07T19:31:09.263Z,24.82
2022-09-07T19:33:39.773Z,24.79
2022-09-07T19:36:10.663Z,24.77
2022-09-07T19:38:41.569Z,24.69
2022-09-07T19:41:14.287Z,24.73
2022-09-07T19:43:44.984Z,24.70
2022-09-07T19:46:18.547Z,24.58
2022-09-07T19:48:50.950Z,24.55
2022-09-07T19:51:21.535Z,24.48
2022-09-07T19:53:52.112Z,24.51
2022-09-07T19:56:25.777Z,24.52
2022-09-07T19:58:56.818Z,24.49
2022-09-07T20:01:27.850Z,24.43
2022-09-07T20:04:01.926Z,24.39
2022-09-07T20:06:34.682Z,24.36
2022-09-07T20:09:05.803Z,24.30
2022-09-07T20:11:37.937Z,24.22
2022-09-07T20:14:08.961Z,24.21
2022-09-07T20:16:41.984Z,24.11
2022-09-07T20:19:16.863Z,24.02
2022-09-07T20:21:47.783Z,23.94
2022-09-07T20:24:23.607Z,23.80
2022-09-07T20:26:54.188Z,23.68
2022-09-07T20:29:27.726Z,23.68
2022-09-07T20:32:02.565Z,23.81
2022-09-07T20:34:33.688Z,23.91
2022-09-07T20:37:04.127Z,24.00
2022-09-07T20:39:38.889Z,23.91
2022-09-07T20:42:09.903Z,23.78
2022-09-07T20:44:40.473Z,23.60
2022-09-07T20:47:11.033Z,23.57
2022-09-07T20:49:41.745Z,23.42
2022-09-07T20:52:12.250Z,23.05
2022-09-07T20:54:42.816Z,22.99
2022-09-07T20:57:13.309Z,22.78
2022-09-07T20:59:44.059Z,22.59
2022-09-07T21:02:14.536Z,22.44
2022-09-07T21:04:49.394Z,22.33
2022-09-07T21:07:20.587Z,22.34
2022-09-07T21:09:52.771Z,22.24
2022-09-07T21:12:23.855Z,22.16
2022-09-07T21:14:54.605Z,22.03
2022-09-07T21:17:25.220Z,21.92
2022-09-07T21:19:55.680Z,21.76
2022-09-07T21:22:26.232Z,21.62
2022-09-07T21:24:56.887Z,21.55
2022-09-07T21:27:27.314Z,21.45
2022-09-07T21:29:57.783Z,21.34
2022-09-07T21:32:28.270Z,21.19
2022-09-07T21:34:58.949Z,21.15
2022-09-07T21:37:29.451Z,21.08
2022-09-07T21:40:00.060Z,21.01
2022-09-07T21:42:30.657Z,20.98
2022-09-07T21:45:01.399Z,20.88
2022-09-07T21:47:31.840Z,20.80
2022-09-07T21:50:02.413Z,20.71
2022-09-07T21:52:33.369Z,20.68
2022-09-07T21:55:03.919Z,20.68
2022-09-07T21:57:34.441Z,20.61
2022-09-07T22:00:06.426Z,20.54
2022-09-07T22:02:38.226Z,20.41
2022-09-07T22:05:09.402Z,20.40
2022-09-07T22:07:39.879Z,20.37
2022-09-07T22:10:11.087Z,20.27
2022-09-07T22:12:41.780Z,20.29
2022-09-07T22:15:12.806Z,20.27
2022-09-07T22:17:46.172Z,20.22
2022-09-07T22:20:17.184Z,20.15
2022-09-07T22:22:47.791Z,20.17
2022-09-07T22:25:18.395Z,20.15
2022-09-07T22:27:49.068Z,20.16
2022-09-07T22:30:19.766Z,20.17
2022-09-07T22:32:51.267Z,20.20
2022-09-07T22:35:22.605Z,20.19
2022-09-07T22:37:53.151Z,20.17
2022-09-07T22:40:23.697Z,20.12
2022-09-07T22:42:54.184Z,20.06
2022-09-07T22:45:24.658Z,19.99
2022-09-07T22:47:54.316Z,19.93
2022-09-07T22:50:24.613Z,19.87
2022-09-07T22:52:55.039Z,19.83
2022-09-07T22:55:25.547Z,19.82
2022-09-07T22:57:56.840Z,19.71
2022-09-07T23:00:27.385Z,19.69
2022-09-07T23:02:57.106Z,19.75
2022-09-07T23:05:27.975Z,19.78
2022-09-07T23:07:58.456Z,19.64
2022-09-07T23:10:28.278Z,19.55
2022-09-07T23:12:58.799Z,19.39
2022-09-07T23:15:29.394Z,19.42
2022-09-07T23:17:59.874Z,19.35
2022-09-07T23:20:30.422Z,19.35
2022-09-07T23:23:00.987Z,19.30
2022-09-07T23:25:31.663Z,19.28
2022-09-07T23:28:02.155Z,19.30
2022-09-07T23:30:32.930Z,19.28
2022-09-07T23:33:05.974Z,19.27
2022-09-07T23:35:36.652Z,19.18
2022-09-07T23:38:07.212Z,19.20
2022-09-07T23:40:37.852Z,19.21
2022-09-07T23:43:08.338Z,19.20
2022-09-07T23:45:38.981Z,19.20
2022-09-07T23:48:09.409Z,19.17
2022-09-07T23:50:40.004Z,19.18
2022-09-07T23:53:10.707Z,19.15
2022-09-07T23:55:41.678Z,19.17
2022-09-07T23:58:12.362Z,19.21
